Time;durP1;ratioP1;P1;durP2;ratioP2;P2;SDS_P1;SDS_P2;PMS_P1;PMS_P2;Temp;Humidity;BMP_temperature;BMP_pressure;BME280_temperature;BME280_humidity;BME280_pressure;Samples;Min_cycle;Max_cycle;Signal;HPM_P1;HPM_P2
2024/01/06 00:00:23;;;;;;;4.63;1.40;;;;;;;;;;4922390;29;20043;-88
2024/01/06 00:02:53;;;;;;;7.55;1.52;;;;;;;;;;4938030;29;20039;-88
2024/01/06 00:05:25;;;;;;;5.72;1.60;;;;;;;;;;4937698;29;20474;-88
2024/01/06 00:07:55;;;;;;;4.30;1.63;;;;;;;;;;4955152;29;20124;-88
2024/01/06 00:10:26;;;;;;;5.40;2.28;;;;;;;;;;4939258;29;20059;-88
2024/01/06 00:12:58;;;;;;;7.25;3.00;;;;;;;;;;4937753;29;20070;-90
2024/01/06 00:15:29;;;;;;;4.03;1.83;;;;;;;;;;4922668;29;20050;-89
2024/01/06 00:17:59;;;;;;;7.25;2.50;;;;;;;;;;4922154;29;20047;-87
2024/01/06 00:20:30;;;;;;;9.10;2.50;;;;;;;;;;4937873;29;20051;-88
2024/01/06 00:23:00;;;;;;;9.32;3.00;;;;;;;;;;4937264;29;20382;-88
2024/01/06 00:25:30;;;;;;;4.22;1.98;;;;;;;;;;4937260;29;20055;-87
2024/01/06 00:28:01;;;;;;;6.00;1.98;;;;;;;;;;4922337;29;20047;-87
2024/01/06 00:30:31;;;;;;;6.68;2.08;;;;;;;;;;4921948;29;20060;-88
2024/01/06 00:33:01;;;;;;;5.18;2.00;;;;;;;;;;4937891;29;20078;-87
2024/01/06 00:35:31;;;;;;;11.07;1.63;;;;;;;;;;4937180;29;20054;-89
2024/01/06 00:38:01;;;;;;;6.28;1.60;;;;;;;;;;4921892;29;20051;-90
2024/01/06 00:40:33;;;;;;;5.20;1.42;;;;;;;;;;4922200;29;20394;-87
2024/01/06 00:43:03;;;;;;;;;;;;;;;;;;4922905;29;20054;-88
2024/01/06 00:45:33;;;;;;;6.28;1.50;;;;;;;;;;4922088;29;19925;-89
2024/01/06 00:48:06;;;;;;;5.97;1.48;;;;;;;;;;4937556;29;20051;-87
2024/01/06 00:50:36;;;;;;;5.10;1.40;;;;;;;;;;4936786;29;20047;-88
2024/01/06 00:53:09;;;;;;;4.95;1.65;;;;;;;;;;4922432;29;20058;-88
2024/01/06 00:55:39;;;;;;;5.70;1.50;;;;;;;;;;4921704;29;20047;-88
2024/01/06 00:58:09;;;;;;;3.97;1.42;;;;;;;;;;4937399;29;20595;-87
2024/01/06 01:00:41;;;;;;;3.10;1.40;;;;;;;;;;4941863;28;20054;-88
2024/01/06 01:03:12;;;;;;;4.53;1.38;;;;;;;;;;4957259;28;20370;-89
2024/01/06 01:05:44;;;;;;;3.45;1.38;;;;;;;;;;4937150;29;20132;-89
2024/01/06 01:08:14;;;;;;;4.07;1.50;;;;;;;;;;4937727;29;20043;-88
2024/01/06 01:10:45;;;;;;;7.07;1.67;;;;;;;;;;4937469;29;20470;-87
2024/01/06 01:13:16;;;;;;;3.88;1.48;;;;;;;;;;4921842;29;20502;-88
2024/01/06 01:15:47;;;;;;;4.07;1.52;;;;;;;;;;4922325;29;20051;-89
2024/01/06 01:18:18;;;;;;;;;;;;;;;;;;4922070;29;20043;-87
2024/01/06 01:20:48;;;;;;;2.75;1.50;;;;;;;;;;4952897;29;19926;-88
2024/01/06 01:23:19;;;;;;;3.25;1.38;;;;;;;;;;4938849;28;20051;-88
2024/01/06 01:25:49;;;;;;;4.40;1.70;;;;;;;;;;4941813;29;20051;-90
2024/01/06 01:28:20;;;;;;;7.53;2.13;;;;;;;;;;4941047;29;20344;-86
2024/01/06 01:30:51;;;;;;;4.93;1.45;;;;;;;;;;4951351;28;20055;-91
2024/01/06 01:33:22;;;;;;;4.75;1.52;;;;;;;;;;4934427;28;20050;-88
2024/01/06 01:35:52;;;;;;;3.67;1.33;;;;;;;;;;4944671;28;20054;-87
2024/01/06 01:38:22;;;;;;;5.85;1.52;;;;;;;;;;4959189;28;20050;-88
2024/01/06 01:40:53;;;;;;;4.93;1.30;;;;;;;;;;4944186;29;20046;-87
2024/01/06 01:43:23;;;;;;;8.10;1.50;;;;;;;;;;4940413;29;20058;-87
2024/01/06 01:45:55;;;;;;;5.43;1.52;;;;;;;;;;4940048;28;20059;-88
2024/01/06 01:48:26;;;;;;;11.75;2.70;;;;;;;;;;4945621;29;20043;-88
2024/01/06 01:50:57;;;;;;;4.15;1.40;;;;;;;;;;4938736;29;20054;-90
2024/01/06 01:53:28;;;;;;;2.90;1.40;;;;;;;;;;4940084;29;20051;-88
2024/01/06 01:55:59;;;;;;;6.38;1.60;;;;;;;;;;4957297;29;20370;-88
2024/01/06 01:58:30;;;;;;;4.88;1.33;;;;;;;;;;4924502;29;20051;-91
2024/01/06 02:01:00;;;;;;;6.03;1.70;;;;;;;;;;4924893;29;20043;-90
2024/01/06 02:03:31;;;;;;;5.40;1.55;;;;;;;;;;4940098;29;20051;-89
2024/01/06 02:06:02;;;;;;;5.60;1.38;;;;;;;;;;4939226;29;20050;-90
2024/01/06 02:08:33;;;;;;;7.43;1.45;;;;;;;;;;4939402;29;20039;-90
2024/01/06 02:11:04;;;;;;;4.47;1.70;;;;;;;;;;4940405;29;20055;-89
2024/01/06 02:13:35;;;;;;;6.90;1.63;;;;;;;;;;4939990;29;20402;-89
2024/01/06 02:16:09;;;;;;;4.90;2.13;;;;;;;;;;4939969;29;20374;-89
2024/01/06 02:18:39;;;;;;;3.88;2.22;;;;;;;;;;4939704;29;20395;-90
2024/01/06 02:21:10;;;;;;;3.20;1.55;;;;;;;;;;4939694;29;20058;-90
2024/01/06 02:23:40;;;;;;;5.03;1.70;;;;;;;;;;4941157;29;20047;-89
2024/01/06 02:26:13;;;;;;;4.93;1.77;;;;;;;;;;4924195;29;20047;-89
2024/01/06 02:28:47;;;;;;;5.28;1.83;;;;;;;;;;4939223;29;20218;-89
2024/01/06 02:31:17;;;;;;;4.97;1.83;;;;;;;;;;4924254;29;20043;-91
2024/01/06 02:33:47;;;;;;;5.28;2.15;;;;;;;;;;4939323;29;20062;-89
2024/01/06 02:36:17;;;;;;;4.43;2.03;;;;;;;;;;4939563;29;20477;-90
2024/01/06 02:38:48;;;;;;;7.55;2.00;;;;;;;;;;4923648;29;20066;-89
2024/01/06 02:41:17;;;;;;;4.35;1.60;;;;;;;;;;4927955;28;20406;-87
2024/01/06 02:43:49;;;;;;;9.50;2.55;;;;;;;;;;4939030;29;20046;-87
2024/01/06 02:46:19;;;;;;;3.30;1.70;;;;;;;;;;4939042;29;20474;-88
2024/01/06 02:48:49;;;;;;;5.22;1.90;;;;;;;;;;4957974;28;20039;-88
2024/01/06 02:51:21;;;;;;;6.38;1.90;;;;;;;;;;4947308;28;20401;-87
2024/01/06 02:54:47;;;;;;;7.05;2.03;;;;;;;;;;4947334;28;20039;-87
2024/01/06 02:57:19;;;;;;;5.20;1.88;;;;;;;;;;4947621;28;20520;-88
2024/01/06 03:00:30;;;;;;;11.40;2.15;;;;;;;;;;4954177;28;20383;-90
2024/01/06 03:03:49;;;;;;;5.95;2.20;;;;;;;;;;4947998;28;20039;-89
2024/01/06 03:06:29;;;;;;;5.57;2.30;;;;;;;;;;4965821;28;20035;-87
2024/01/06 03:09:17;;;;;;;6.63;2.35;;;;;;;;;;4882246;29;20053;-88
2024/01/06 03:11:48;;;;;;;9.15;2.50;;;;;;;;;;4862879;29;20500;-87
2024/01/06 03:14:18;;;;;;;6.15;2.03;;;;;;;;;;4884645;29;20069;-88
2024/01/06 03:16:48;;;;;;;4.55;2.10;;;;;;;;;;4886941;29;20049;-88
2024/01/06 03:19:20;;;;;;;6.50;1.88;;;;;;;;;;4877554;29;20057;-89
2024/01/06 03:21:51;;;;;;;8.48;2.58;;;;;;;;;;4878983;29;20075;-88
2024/01/06 03:24:25;;;;;;;6.90;2.30;;;;;;;;;;4858993;29;20051;-90
2024/01/06 03:26:55;;;;;;;4.57;2.33;;;;;;;;;;4897210;29;20052;-89
2024/01/06 03:29:26;;;;;;;8.73;2.60;;;;;;;;;;4879594;29;20088;-89
2024/01/06 03:31:57;;;;;;;6.47;2.20;;;;;;;;;;4877532;29;20045;-89
2024/01/06 03:34:28;;;;;;;7.50;2.55;;;;;;;;;;4863541;29;20061;-88
2024/01/06 03:36:58;;;;;;;7.55;2.25;;;;;;;;;;4847561;29;20049;-88
2024/01/06 03:39:28;;;;;;;8.60;2.40;;;;;;;;;;4863473;29;20057;-89
2024/01/06 03:42:00;;;;;;;7.25;2.30;;;;;;;;;;4847285;29;20045;-89
2024/01/06 03:44:33;;;;;;;5.90;2.28;;;;;;;;;;4847888;29;20145;-89
2024/01/06 03:47:04;;;;;;;5.88;1.95;;;;;;;;;;4903389;29;20070;-89
2024/01/06 03:49:34;;;;;;;8.85;2.13;;;;;;;;;;4936917;29;20047;-90
2024/01/06 03:52:05;;;;;;;7.00;2.15;;;;;;;;;;4904884;29;20055;-88
2024/01/06 03:54:34;;;;;;;6.90;1.90;;;;;;;;;;4920259;29;20485;-89
2024/01/06 03:57:05;;;;;;;12.25;2.35;;;;;;;;;;4903819;29;20051;-88
2024/01/06 03:59:36;;;;;;;5.65;1.98;;;;;;;;;;4919703;29;20043;-87
2024/01/06 04:02:07;;;;;;;4.22;1.95;;;;;;;;;;4920536;29;20047;-88
2024/01/06 04:04:37;;;;;;;5.32;2.40;;;;;;;;;;4920095;29;20047;-88
2024/01/06 04:07:07;;;;;;;3.97;1.80;;;;;;;;;;4919108;29;20051;-88
2024/01/06 04:09:37;;;;;;;5.85;2.35;;;;;;;;;;4928693;29;20047;-88
2024/01/06 04:12:08;;;;;;;6.38;2.30;;;;;;;;;;4955955;29;20050;-88
2024/01/06 04:14:38;;;;;;;7.30;2.60;;;;;;;;;;4937584;29;20051;-88
2024/01/06 04:17:09;;;;;;;7.00;2.15;;;;;;;;;;4955280;29;20050;-88
2024/01/06 04:19:43;;;;;;;6.80;1.90;;;;;;;;;;4937848;29;20047;-87
2024/01/06 04:22:13;;;;;;;10.13;2.05;;;;;;;;;;4922063;29;20058;-89
2024/01/06 04:24:44;;;;;;;5.80;1.70;;;;;;;;;;4937635;29;20058;-89
2024/01/06 04:27:14;;;;;;;5.75;2.00;;;;;;;;;;4938440;29;20047;-89
2024/01/06 04:29:44;;;;;;;5.63;2.70;;;;;;;;;;4938022;29;20390;-89
2024/01/06 04:32:15;;;;;;;4.95;2.03;;;;;;;;;;4938057;29;20055;-88
2024/01/06 04:34:45;;;;;;;9.10;2.28;;;;;;;;;;4922185;29;20051;-88
2024/01/06 04:37:16;;;;;;;5.60;2.20;;;;;;;;;;4938763;29;20051;-87
2024/01/06 04:39:46;;;;;;;6.00;2.13;;;;;;;;;;4954746;29;20497;-87
2024/01/06 04:42:16;;;;;;;9.75;2.58;;;;;;;;;;4937497;29;20050;-88
2024/01/06 04:44:46;;;;;;;6.50;2.50;;;;;;;;;;4937172;29;20050;-88
2024/01/06 04:47:18;;;;;;;10.15;3.38;;;;;;;;;;4955381;29;20043;-88
2024/01/06 04:49:49;;;;;;;9.38;2.90;;;;;;;;;;4953901;29;20051;-88
2024/01/06 04:52:18;;;;;;;7.00;3.00;;;;;;;;;;4937493;29;20486;-88
2024/01/06 04:54:49;;;;;;;8.70;2.75;;;;;;;;;;4937094;29;20047;-88
2024/01/06 04:57:20;;;;;;;9.13;2.88;;;;;;;;;;4953964;29;20039;-88
2024/01/06 04:59:52;;;;;;;5.55;2.35;;;;;;;;;;4938631;29;20046;-89
2024/01/06 05:02:24;;;;;;;5.78;2.25;;;;;;;;;;4941852;29;20459;-88
2024/01/06 05:04:55;;;;;;;10.07;2.80;;;;;;;;;;4941578;29;20394;-88
2024/01/06 05:07:24;;;;;;;9.82;2.15;;;;;;;;;;4940565;29;20058;-87
2024/01/06 05:09:55;;;;;;;8.38;2.00;;;;;;;;;;4940916;29;20051;-88
2024/01/06 05:12:26;;;;;;;6.18;1.90;;;;;;;;;;4958899;29;20051;-88
2024/01/06 05:14:57;;;;;;;6.10;1.77;;;;;;;;;;4959114;29;20466;-87
2024/01/06 05:17:28;;;;;;;7.57;1.83;;;;;;;;;;4959054;29;20043;-88
2024/01/06 05:20:00;;;;;;;5.40;2.13;;;;;;;;;;4925539;29;20047;-88
2024/01/06 05:22:30;;;;;;;6.90;2.67;;;;;;;;;;4925473;29;20371;-88
2024/01/06 05:25:01;;;;;;;6.00;2.05;;;;;;;;;;4940989;29;20054;-88
2024/01/06 05:27:31;;;;;;;7.32;2.33;;;;;;;;;;4942114;29;20478;-88
2024/01/06 05:30:04;;;;;;;5.95;2.40;;;;;;;;;;4958572;29;20058;-88
2024/01/06 05:32:38;;;;;;;7.85;2.60;;;;;;;;;;4940419;29;20051;-88
2024/01/06 05:35:08;;;;;;;7.05;2.30;;;;;;;;;;4940825;29;20047;-88
2024/01/06 05:37:38;;;;;;;6.68;2.75;;;;;;;;;;4957565;29;20043;-88
2024/01/06 05:40:11;;;;;;;6.75;3.08;;;;;;;;;;4940831;29;20054;-87
2024/01/06 05:42:42;;;;;;;11.38;4.20;;;;;;;;;;4941683;29;20374;-88
2024/01/06 05:45:15;;;;;;;9.55;3.47;;;;;;;;;;4940037;29;20051;-87
2024/01/06 05:47:47;;;;;;;8.90;3.35;;;;;;;;;;4957077;29;20054;-87
2024/01/06 05:50:18;;;;;;;7.47;3.10;;;;;;;;;;4927403;29;20055;-87
2024/01/06 05:52:49;;;;;;;9.82;3.30;;;;;;;;;;4942666;29;20044;-88
2024/01/06 05:55:19;;;;;;;8.65;2.92;;;;;;;;;;4941176;29;20144;-88
2024/01/06 05:57:50;;;;;;;10.30;3.95;;;;;;;;;;4940356;29;20054;-87
2024/01/06 06:00:22;;;;;;;9.80;3.28;;;;;;;;;;4929112;29;20054;-88
2024/01/06 06:02:53;;;;;;;9.10;2.60;;;;;;;;;;4949688;29;20398;-88
2024/01/06 06:05:23;;;;;;;7.90;2.53;;;;;;;;;;4949110;29;20043;-87
2024/01/06 06:07:54;;;;;;;7.70;3.10;;;;;;;;;;4939766;28;20035;-86
2024/01/06 06:10:40;;;;;;;7.72;2.95;;;;;;;;;;4939993;29;20055;-87
2024/01/06 06:13:11;;;;;;;6.90;3.00;;;;;;;;;;4947577;28;20036;-87
2024/01/06 06:15:41;;;;;;;9.60;3.25;;;;;;;;;;4969582;28;20039;-86
2024/01/06 06:18:11;;;;;;;8.10;3.25;;;;;;;;;;4949444;29;20043;-86
2024/01/06 06:20:43;;;;;;;9.02;3.58;;;;;;;;;;4957752;29;20066;-87
2024/01/06 06:23:14;;;;;;;7.30;3.40;;;;;;;;;;4924153;29;20074;-87
2024/01/06 06:25:46;;;;;;;9.70;4.65;;;;;;;;;;4957323;29;20378;-86
2024/01/06 06:28:16;;;;;;;10.77;4.75;;;;;;;;;;4939368;29;20483;-87
2024/01/06 06:30:47;;;;;;;12.32;4.43;;;;;;;;;;4924609;29;20466;-86
2024/01/06 06:33:18;;;;;;;10.80;4.72;;;;;;;;;;4940468;29;20055;-86
2024/01/06 06:35:49;;;;;;;10.93;4.85;;;;;;;;;;4955611;29;20398;-86
2024/01/06 06:38:21;;;;;;;14.13;5.53;;;;;;;;;;4957277;29;20076;-87
2024/01/06 06:40:51;;;;;;;14.15;6.10;;;;;;;;;;4924072;29;20043;-86
2024/01/06 06:43:21;;;;;;;18.42;5.60;;;;;;;;;;4939502;29;20047;-87
2024/01/06 06:45:51;;;;;;;12.15;5.68;;;;;;;;;;4955766;29;20062;-87
2024/01/06 06:48:22;;;;;;;19.55;5.25;;;;;;;;;;4939012;29;20055;-87
2024/01/06 06:50:54;;;;;;;7.82;3.15;;;;;;;;;;4923943;29;20066;-87
2024/01/06 06:53:24;;;;;;;6.03;2.38;;;;;;;;;;4956915;29;20043;-87
2024/01/06 06:55:54;;;;;;;7.03;2.35;;;;;;;;;;4938912;29;20047;-87
2024/01/06 06:58:24;;;;;;;5.10;2.42;;;;;;;;;;4956476;29;20054;-88
2024/01/06 07:00:54;;;;;;;8.60;2.15;;;;;;;;;;4955418;29;20062;-86
2024/01/06 07:03:27;;;;;;;5.78;2.08;;;;;;;;;;4954817;29;20047;-88
2024/01/06 07:05:58;;;;;;;8.52;2.75;;;;;;;;;;4938525;29;20385;-87
2024/01/06 07:08:29;;;;;;;6.70;2.25;;;;;;;;;;4939833;29;20050;-86
2024/01/06 07:11:00;;;;;;;6.80;2.00;;;;;;;;;;4938613;29;20050;-87
2024/01/06 07:13:31;;;;;;;14.45;2.65;;;;;;;;;;4939814;29;20043;-88
2024/01/06 07:16:02;;;;;;;5.90;2.13;;;;;;;;;;4939935;29;20039;-86
2024/01/06 07:18:46;;;;;;;9.30;2.08;;;;;;;;;;4956384;29;20035;-87
2024/01/06 07:21:17;;;;;;;5.28;2.17;;;;;;;;;;4939782;29;20053;-86
2024/01/06 07:23:47;;;;;;;4.53;1.90;;;;;;;;;;4939214;29;20050;-87
2024/01/06 07:26:18;;;;;;;7.00;1.83;;;;;;;;;;4938956;29;20051;-86
2024/01/06 07:28:49;;;;;;;8.07;2.15;;;;;;;;;;4938573;29;20058;-86
2024/01/06 07:31:19;;;;;;;5.55;2.10;;;;;;;;;;4938416;29;20058;-86
2024/01/06 07:33:51;;;;;;;5.88;1.98;;;;;;;;;;4955012;29;20050;-86
2024/01/06 07:36:22;;;;;;;6.18;3.00;;;;;;;;;;4956446;29;20046;-86
2024/01/06 07:38:53;;;;;;;7.20;2.42;;;;;;;;;;4956104;29;20126;-86
2024/01/06 07:41:23;;;;;;;7.57;2.60;;;;;;;;;;4938159;29;20055;-87
2024/01/06 07:43:54;;;;;;;14.02;3.80;;;;;;;;;;4938177;29;20070;-86
2024/01/06 07:46:25;;;;;;;6.95;2.75;;;;;;;;;;4937544;29;20043;-86
2024/01/06 07:48:56;;;;;;;6.55;3.00;;;;;;;;;;4938747;29;20043;-86
2024/01/06 07:51:27;;;;;;;7.60;2.53;;;;;;;;;;4954682;29;20382;-86
2024/01/06 07:53:58;;;;;;;10.55;3.13;;;;;;;;;;4937829;29;20502;-86
2024/01/06 07:56:28;;;;;;;10.63;2.63;;;;;;;;;;4937671;29;20046;-85
2024/01/06 07:58:59;;;;;;;6.40;2.33;;;;;;;;;;4955856;29;20039;-86
2024/01/06 08:01:29;;;;;;;7.63;2.60;;;;;;;;;;4937972;29;20051;-86
2024/01/06 08:03:59;;;;;;;8.30;2.47;;;;;;;;;;4937937;29;20050;-86
2024/01/06 08:06:31;;;;;;;6.93;2.47;;;;;;;;;;4954254;29;20398;-86
2024/01/06 08:09:01;;;;;;;5.70;2.65;;;;;;;;;;4937930;29;20475;-85
2024/01/06 08:11:31;;;;;;;7.32;2.50;;;;;;;;;;4937879;29;20054;-85
2024/01/06 08:14:01;;;;;;;7.20;2.72;;;;;;;;;;4938134;29;20474;-87
2024/01/06 08:16:32;;;;;;;7.40;2.58;;;;;;;;;;4938857;29;20386;-87
2024/01/06 08:19:03;;;;;;;5.00;2.25;;;;;;;;;;4937679;29;20073;-86
2024/01/06 08:21:34;;;;;;;5.55;2.50;;;;;;;;;;4955365;28;20046;-85
2024/01/06 08:24:05;;;;;;;7.65;2.50;;;;;;;;;;4940898;28;20382;-87
2024/01/06 08:26:36;;;;;;;6.95;2.45;;;;;;;;;;4974462;28;20348;-86
2024/01/06 08:29:08;;;;;;;9.55;3.85;;;;;;;;;;4941702;28;20050;-86
2024/01/06 08:31:38;;;;;;;7.00;2.33;;;;;;;;;;4949932;28;20061;-87
2024/01/06 08:34:08;;;;;;;8.70;2.65;;;;;;;;;;4954986;28;20410;-86
2024/01/06 08:36:38;;;;;;;6.20;2.30;;;;;;;;;;4954551;29;20054;-86
2024/01/06 08:39:08;;;;;;;8.05;2.85;;;;;;;;;;4945971;28;20054;-86
2024/01/06 08:41:39;;;;;;;10.38;2.35;;;;;;;;;;4967582;28;20034;-86
2024/01/06 08:44:10;;;;;;;9.75;3.13;;;;;;;;;;4937599;28;20047;-85
2024/01/06 08:46:41;;;;;;;6.43;2.30;;;;;;;;;;4955555;28;20493;-86
2024/01/06 08:49:12;;;;;;;6.65;2.50;;;;;;;;;;4937178;29;20039;-86
2024/01/06 08:51:43;;;;;;;8.48;2.28;;;;;;;;;;4921846;29;20047;-86
2024/01/06 08:54:14;;;;;;;6.47;2.85;;;;;;;;;;4955055;29;20389;-86
2024/01/06 08:56:45;;;;;;;8.27;2.45;;;;;;;;;;4955270;29;20390;-86
2024/01/06 08:59:15;;;;;;;7.55;2.10;;;;;;;;;;4955415;29;20040;-88
2024/01/06 09:01:47;;;;;;;5.20;2.40;;;;;;;;;;4937487;29;20047;-87
2024/01/06 09:04:18;;;;;;;5.75;2.35;;;;;;;;;;4937598;29;20047;-87
2024/01/06 09:06:50;;;;;;;10.13;2.25;;;;;;;;;;4937039;29;20051;-88
2024/01/06 09:09:23;;;;;;;6.82;2.90;;;;;;;;;;4938356;29;20060;-88
2024/01/06 09:11:53;;;;;;;8.32;3.08;;;;;;;;;;4937116;29;20077;-88
2024/01/06 09:14:25;;;;;;;6.75;3.03;;;;;;;;;;4937431;29;20047;-88
2024/01/06 09:16:55;;;;;;;9.00;2.97;;;;;;;;;;4937797;29;20047;-89
2024/01/06 09:19:28;;;;;;;12.20;2.28;;;;;;;;;;4921756;29;20055;-89
2024/01/06 09:21:59;;;;;;;5.00;2.00;;;;;;;;;;4936742;29;20051;-88
2024/01/06 09:24:31;;;;;;;5.10;2.10;;;;;;;;;;4922473;29;20066;-88
2024/01/06 09:27:03;;;;;;;3.53;1.92;;;;;;;;;;4955306;29;20083;-89
2024/01/06 09:29:35;;;;;;;9.18;2.80;;;;;;;;;;4937544;29;20386;-89
2024/01/06 09:32:06;;;;;;;7.82;3.20;;;;;;;;;;4936980;29;20051;-89
2024/01/06 09:34:37;;;;;;;10.10;2.65;;;;;;;;;;4936547;29;20052;-89
2024/01/06 09:37:09;;;;;;;10.43;3.80;;;;;;;;;;4936836;29;20058;-88
2024/01/06 09:39:40;;;;;;;8.10;2.33;;;;;;;;;;4937412;29;20051;-89
2024/01/06 09:42:11;;;;;;;5.28;2.30;;;;;;;;;;4921666;29;20051;-88
2024/01/06 09:44:42;;;;;;;5.07;2.20;;;;;;;;;;4922262;28;20058;-88
2024/01/06 09:47:18;;;;;;;8.48;2.67;;;;;;;;;;4940548;29;20039;-89
2024/01/06 09:49:50;;;;;;;10.27;2.55;;;;;;;;;;4924904;29;20051;-88
2024/01/06 09:52:23;;;;;;;7.95;2.80;;;;;;;;;;4940347;29;20498;-87
2024/01/06 09:54:55;;;;;;;12.10;3.05;;;;;;;;;;4941613;29;20054;-88
2024/01/06 09:57:26;;;;;;;14.00;2.45;;;;;;;;;;4941091;29;20051;-88
2024/01/06 09:59:57;;;;;;;;;;;;;;;;;;4926608;29;20054;-86
2024/01/06 10:02:39;;;;;;;4.65;1.88;;;;;;;;;;4961732;28;20361;-87
2024/01/06 10:05:12;;;;;;;8.43;2.55;;;;;;;;;;4925194;29;20391;-86
2024/01/06 10:07:45;;;;;;;6.00;2.35;;;;;;;;;;4940537;29;20058;-87
2024/01/06 10:10:16;;;;;;;9.00;2.13;;;;;;;;;;4939583;28;20402;-87
2024/01/06 10:12:47;;;;;;;12.55;2.47;;;;;;;;;;4965754;28;20035;-87
2024/01/06 10:15:17;;;;;;;12.23;2.13;;;;;;;;;;4934557;28;20040;-86
2024/01/06 10:17:49;;;;;;;7.90;2.10;;;;;;;;;;4956567;28;20054;-86
2024/01/06 10:20:21;;;;;;;7.00;2.13;;;;;;;;;;4948248;28;20066;-86
2024/01/06 10:22:52;;;;;;;;;;;;;;;;;;4950016;28;20394;-86
2024/01/06 10:25:24;;;;;;;5.00;2.05;;;;;;;;;;4958228;28;19946;-86
2024/01/06 10:27:55;;;;;;;7.80;2.70;;;;;;;;;;4933123;28;20401;-86
2024/01/06 10:30:26;;;;;;;5.75;1.67;;;;;;;;;;4934835;28;20405;-86
2024/01/06 10:32:57;;;;;;;5.47;1.63;;;;;;;;;;4976273;28;20053;-86
2024/01/06 10:35:29;;;;;;;3.58;1.30;;;;;;;;;;4958705;28;20050;-85
2024/01/06 10:38:01;;;;;;;3.55;1.13;;;;;;;;;;4958826;28;20599;-85
2024/01/06 10:40:32;;;;;;;2.42;1.20;;;;;;;;;;4949879;28;20490;-86
2024/01/06 10:43:04;;;;;;;3.22;1.23;;;;;;;;;;4950445;28;20532;-85
2024/01/06 10:45:36;;;;;;;2.72;1.00;;;;;;;;;;4937277;28;20051;-84
2024/01/06 10:48:08;;;;;;;2.53;1.10;;;;;;;;;;4947210;29;20035;-86
2024/01/06 10:50:39;;;;;;;4.78;1.38;;;;;;;;;;4939365;29;20517;-85
2024/01/06 10:53:11;;;;;;;2.35;1.30;;;;;;;;;;4956355;29;20047;-85
2024/01/06 10:55:42;;;;;;;2.00;1.40;;;;;;;;;;4939488;29;20386;-85
2024/01/06 10:58:16;;;;;;;3.63;1.10;;;;;;;;;;4922921;29;20051;-85
2024/01/06 11:00:48;;;;;;;2.30;0.98;;;;;;;;;;4956732;28;20613;-86
2024/01/06 11:03:19;;;;;;;2.38;0.90;;;;;;;;;;4959734;28;20051;-86
2024/01/06 11:05:50;;;;;;;2.22;1.05;;;;;;;;;;4948506;28;20047;-85
2024/01/06 11:08:23;;;;;;;3.33;0.90;;;;;;;;;;4943381;28;20051;-85
2024/01/06 11:10:54;;;;;;;5.07;0.93;;;;;;;;;;4966806;28;20102;-87
2024/01/06 11:13:26;;;;;;;2.42;1.00;;;;;;;;;;4942468;29;20062;-85
2024/01/06 11:15:57;;;;;;;;;;;;;;;;;;4941075;29;20491;-86
2024/01/06 11:18:38;;;;;;;2.97;0.93;;;;;;;;;;4970593;28;19926;-86
2024/01/06 11:21:21;;;;;;;2.70;1.13;;;;;;;;;;4938916;29;20050;-86
2024/01/06 11:24:07;;;;;;;2.60;0.75;;;;;;;;;;4939176;29;20054;-86
2024/01/06 11:26:42;;;;;;;1.77;0.80;;;;;;;;;;4938697;29;20043;-86
2024/01/06 11:29:13;;;;;;;2.03;0.90;;;;;;;;;;4938414;29;20504;-87
2024/01/06 11:31:43;;;;;;;1.30;0.73;;;;;;;;;;4955964;29;20051;-87
2024/01/06 11:34:21;;;;;;;2.40;1.00;;;;;;;;;;4956133;29;20043;-87
2024/01/06 11:36:52;;;;;;;2.38;0.70;;;;;;;;;;4939537;29;20055;-86
2024/01/06 11:39:40;;;;;;;5.15;1.20;;;;;;;;;;4922710;29;20047;-85
2024/01/06 11:42:12;;;;;;;1.95;1.00;;;;;;;;;;4938560;29;20058;-86
2024/01/06 11:44:51;;;;;;;3.92;0.90;;;;;;;;;;4939189;29;20043;-85
2024/01/06 11:47:23;;;;;;;2.40;1.33;;;;;;;;;;4938212;29;20046;-85
2024/01/06 11:49:56;;;;;;;4.82;1.02;;;;;;;;;;4955678;29;20054;-86
2024/01/06 11:52:27;;;;;;;4.18;1.13;;;;;;;;;;4938588;29;20066;-84
2024/01/06 11:54:59;;;;;;;2.13;1.10;;;;;;;;;;4922634;29;20054;-85
2024/01/06 11:57:30;;;;;;;2.35;1.20;;;;;;;;;;4956128;29;20346;-86
2024/01/06 12:00:04;;;;;;;6.95;0.85;;;;;;;;;;4955598;29;20035;-85
2024/01/06 12:02:34;;;;;;;2.67;0.88;;;;;;;;;;4938761;29;20065;-87
2024/01/06 12:05:04;;;;;;;6.80;1.20;;;;;;;;;;4939243;29;20050;-84
2024/01/06 12:07:37;;;;;;;3.00;0.90;;;;;;;;;;4938279;29;20047;-85
2024/01/06 12:10:08;;;;;;;2.53;1.00;;;;;;;;;;4936526;29;20074;-85
2024/01/06 12:12:38;;;;;;;2.47;0.98;;;;;;;;;;4923025;28;20058;-87
2024/01/06 12:15:09;;;;;;;2.28;0.80;;;;;;;;;;4922718;29;20058;-87
2024/01/06 12:17:41;;;;;;;2.63;1.05;;;;;;;;;;4923272;29;20054;-89
2024/01/06 12:20:13;;;;;;;4.25;1.30;;;;;;;;;;4945188;29;20047;-87
2024/01/06 12:22:46;;;;;;;1.83;1.08;;;;;;;;;;4948422;29;20054;-89
2024/01/06 12:25:16;;;;;;;5.05;0.70;;;;;;;;;;4946303;29;20055;-90
2024/01/06 12:27:48;;;;;;;3.45;0.93;;;;;;;;;;4946114;29;20479;-86
2024/01/06 12:30:21;;;;;;;4.68;0.95;;;;;;;;;;4934969;28;20051;-89
2024/01/06 12:32:52;;;;;;;1.92;0.98;;;;;;;;;;4936310;28;20043;-89
2024/01/06 12:35:23;;;;;;;3.00;0.82;;;;;;;;;;4951509;28;20039;-85
2024/01/06 12:37:53;;;;;;;7.05;1.05;;;;;;;;;;4946341;28;20073;-85
2024/01/06 12:40:26;;;;;;;2.97;1.20;;;;;;;;;;4938209;29;20047;-86
2024/01/06 12:42:56;;;;;;;1.55;0.85;;;;;;;;;;4937409;29;20043;-84
2024/01/06 12:45:27;;;;;;;2.80;1.30;;;;;;;;;;4922468;29;20051;-84
2024/01/06 12:47:58;;;;;;;4.13;2.10;;;;;;;;;;4937371;29;20480;-84
2024/01/06 12:50:29;;;;;;;1.58;1.00;;;;;;;;;;4938520;29;20043;-84
2024/01/06 12:53:00;;;;;;;8.15;1.17;;;;;;;;;;4937299;29;20047;-83
2024/01/06 12:55:31;;;;;;;5.53;2.50;;;;;;;;;;4921958;29;20051;-84
2024/01/06 12:58:03;;;;;;;4.35;2.65;;;;;;;;;;4955974;29;20047;-84
2024/01/06 13:00:34;;;;;;;2.60;1.25;;;;;;;;;;4937293;29;20047;-85
2024/01/06 13:03:05;;;;;;;;;;;;;;;;;;4955933;29;20042;-87
2024/01/06 13:05:35;;;;;;;3.13;1.20;;;;;;;;;;4937643;29;19926;-85
2024/01/06 13:08:06;;;;;;;3.25;1.08;;;;;;;;;;4954716;29;20054;-86
2024/01/06 13:10:36;;;;;;;2.42;0.90;;;;;;;;;;4921856;29;20054;-85
2024/01/06 13:13:06;;;;;;;1.10;0.90;;;;;;;;;;4937877;29;20043;-84
2024/01/06 13:15:36;;;;;;;6.20;1.77;;;;;;;;;;4938141;29;20058;-84
2024/01/06 13:18:06;;;;;;;3.42;1.05;;;;;;;;;;4955052;29;20485;-84
2024/01/06 13:20:40;;;;;;;2.97;1.33;;;;;;;;;;4955977;28;20054;-86
2024/01/06 13:23:13;;;;;;;2.50;1.70;;;;;;;;;;4940887;29;20383;-84
2024/01/06 13:25:44;;;;;;;4.57;1.40;;;;;;;;;;4940725;29;20054;-85
2024/01/06 13:28:14;;;;;;;3.58;1.00;;;;;;;;;;4942301;29;20047;-84
2024/01/06 13:30:46;;;;;;;6.50;1.20;;;;;;;;;;4941791;29;20047;-86
2024/01/06 13:33:17;;;;;;;3.03;1.30;;;;;;;;;;4925017;29;20054;-85
2024/01/06 13:35:49;;;;;;;3.92;1.23;;;;;;;;;;4924963;29;20470;-88
2024/01/06 13:38:22;;;;;;;3.83;1.20;;;;;;;;;;4941778;29;20387;-89
2024/01/06 13:40:53;;;;;;;5.38;1.40;;;;;;;;;;4941781;29;20047;-87
2024/01/06 13:43:23;;;;;;;3.92;1.38;;;;;;;;;;4941254;29;20046;-91
2024/01/06 13:45:55;;;;;;;2.85;0.98;;;;;;;;;;4940209;29;20054;-89
2024/01/06 13:48:26;;;;;;;5.20;1.40;;;;;;;;;;4940495;29;20039;-85
2024/01/06 13:50:58;;;;;;;3.33;1.02;;;;;;;;;;4957715;29;20058;-89
2024/01/06 13:53:30;;;;;;;3.67;1.40;;;;;;;;;;4924746;29;20047;-87
2024/01/06 13:56:00;;;;;;;3.15;1.15;;;;;;;;;;4941766;29;20051;-87
2024/01/06 13:58:30;;;;;;;2.83;1.00;;;;;;;;;;4942084;28;20051;-89
2024/01/06 14:01:01;;;;;;;3.95;1.00;;;;;;;;;;4960362;28;20057;-90
2024/01/06 14:03:32;;;;;;;2.00;1.05;;;;;;;;;;4962992;28;20047;-88
2024/01/06 14:06:03;;;;;;;2.55;1.08;;;;;;;;;;4963663;28;20051;-89
2024/01/06 14:08:34;;;;;;;2.40;1.10;;;;;;;;;;4944210;28;20061;-89
2024/01/06 14:11:05;;;;;;;3.05;1.30;;;;;;;;;;4960667;28;20046;-90
2024/01/06 14:13:36;;;;;;;2.17;1.08;;;;;;;;;;4959861;28;20062;-88
2024/01/06 14:16:08;;;;;;;3.15;1.42;;;;;;;;;;4960349;28;20047;-89
2024/01/06 14:18:39;;;;;;;3.35;0.98;;;;;;;;;;4959887;28;20046;-87
2024/01/06 14:21:19;;;;;;;2.75;1.58;;;;;;;;;;4960792;28;20051;-89
2024/01/06 14:23:50;;;;;;;4.93;1.20;;;;;;;;;;4959883;28;20057;-86
2024/01/06 14:26:23;;;;;;;3.63;1.30;;;;;;;;;;4959634;28;20054;-90
2024/01/06 14:28:54;;;;;;;7.18;1.17;;;;;;;;;;4959707;28;20051;-89
2024/01/06 14:31:27;;;;;;;2.95;1.27;;;;;;;;;;4943583;28;20051;-85
2024/01/06 14:33:59;;;;;;;4.20;1.00;;;;;;;;;;4960565;28;20047;-89
2024/01/06 14:36:32;;;;;;;4.53;1.20;;;;;;;;;;4958764;28;20046;-87
2024/01/06 14:39:06;;;;;;;3.85;1.30;;;;;;;;;;4943531;28;20059;-87
2024/01/06 14:41:36;;;;;;;2.58;1.30;;;;;;;;;;4959101;28;20050;-86
2024/01/06 14:44:08;;;;;;;3.58;1.10;;;;;;;;;;4960317;28;20050;-87
2024/01/06 14:46:41;;;;;;;3.38;1.25;;;;;;;;;;4958476;28;20038;-85
2024/01/06 14:49:12;;;;;;;1.83;0.98;;;;;;;;;;4958600;28;20057;-89
2024/01/06 14:51:44;;;;;;;3.28;1.10;;;;;;;;;;4959520;28;20047;-88
2024/01/06 14:54:17;;;;;;;2.53;1.00;;;;;;;;;;4958183;28;20066;-89
2024/01/06 14:56:47;;;;;;;2.22;0.98;;;;;;;;;;4958953;28;20050;-88
2024/01/06 14:59:17;;;;;;;2.30;1.10;;;;;;;;;;4959436;28;20057;-89
2024/01/06 15:01:49;;;;;;;3.45;1.33;;;;;;;;;;4958497;28;20050;-88
2024/01/06 15:04:20;;;;;;;2.75;1.23;;;;;;;;;;4942938;28;20479;-87
2024/01/06 15:06:50;;;;;;;4.45;1.05;;;;;;;;;;4957947;28;20054;-85
2024/01/06 15:09:20;;;;;;;3.55;1.42;;;;;;;;;;4975904;28;20131;-87